METAR Data
IDs: Format: Raw Decoded Include TAF

Data at: 0334 UTC 18 Jun 2019

PABV 180256Z AUTO 26007KT 10SM FEW022 OVC080 19/09 A2964 RMK AO2 RAE35 SLP043 P0000 60000 T01940094 53004
PABV 180156Z AUTO VRB03KT 10SM -RA FEW060 19/08 A2964 RMK AO2 RAB48 SLP041 P0000 T01940083
PABV 180056Z AUTO VRB03KT 10SM OVC070 19/08 A2963 RMK AO2 RAB19E41 SLP039 P0000 T01940083
PABV 172356Z AUTO 00000KT 10SM BKN075 19/09 A2963 RMK AO2 SLP040 60001 T01940089 10194 20133 53002
PABV 172256Z AUTO VRB03KT 10SM FEW034 BKN070 19/09 A2963 RMK AO2 RAE33 SLP038 P0000 T01890089
PABV 172156Z AUTO 14004KT 10SM -RA OVC085 17/09 A2963 RMK AO2 RAB37 SLP039 P0001 T01720094
PABV 172056Z AUTO VRB04KT 10SM CLR 18/07 A2963 RMK AO2 SLP037 T01780067 58003
PABV 171956Z AUTO VRB03KT 10SM CLR 17/07 A2963 RMK AO2 SLP038 T01670072
PABV 171856Z AUTO 00000KT 10SM CLR 15/07 A2963 RMK AO2 SLP040 T01500067
PABV 171756Z AUTO 34003KT 10SM CLR 13/08 A2964 RMK AO2 SLP040 T01330078 10139 20100 56009
PABV 171656Z AUTO 04005KT 10SM CLR 12/07 A2964 RMK AO2 SLP043 T01170067
PABV 171556Z AUTO 04003KT 10SM CLR 12/09 A2965 RMK AO2 SLP046 T01170089
PABV 171456Z AUTO 35003KT 10SM CLR 11/08 A2966 RMK AO2 SLP050 T01060083 56009
PABV 171356Z AUTO 00000KT 10SM CLR 11/08 A2967 RMK AO2 SLP052 T01060078
PABV 171256Z AUTO 00000KT 10SM OVC110 11/08 A2968 RMK AO2 SLP054 T01060083
PABV 171156Z AUTO 06003KT 10SM BKN080 OVC100 11/09 A2969 RMK AO2 SLP059 60002 70004 T01110094 10139 20111 58016
PABV 171056Z AUTO 00000KT 10SM OVC100 12/10 A2971 RMK AO2 SLP066 T01170100
PABV 170956Z AUTO 08003KT 10SM BKN080 OVC100 12/11 A2973 RMK AO2 RAE36 SLP071 P0000 T01170106
PABV 170856Z AUTO 13003KT 10SM -RA OVC080 12/11 A2974 RMK AO2 SLP075 P0001 60002 T01220111 401890100 58002
PABV 170756Z AUTO 14004KT 10SM -RA OVC080 13/12 A2974 RMK AO2 SLP076 P0001 T01330117
PABV 170656Z AUTO 13004KT 10SM -RA OVC070 14/12 A2975 RMK AO2 SLP078 P0000 T01390122
PABV 170556Z AUTO 13003KT 10SM -RA OVC065 14/12 A2974 RMK AO2 SLP078 P0001 60002 T01390117 10189 20139 58002
PABV 170456Z AUTO 13003KT 10SM -RA OVC065 15/12 A2975 RMK AO2 SLP078 P0001 T01500117
PABV 170356Z AUTO 00000KT 10SM -RA OVC070 17/11 A2975 RMK AO2 SLP079 P0000 T01670106
PABV 170256Z AUTO 25003KT 10SM -RA OVC060 17/09 A2975 RMK AO2 RAB27 SLP079 P0000 60000 T01670094 56009
PABV 170156Z AUTO 30004KT 10SM SCT080 18/08 A2975 RMK AO2 SLP079 T01780078
PABV 170056Z AUTO 00000KT 10SM OVC075 18/07 A2977 RMK AO2 RAB21E34 SLP084 P0000 T01830067
PABV 162356Z AUTO 00000KT 10SM SCT080 17/09 A2978 RMK AO2 SLP089 60000 T01720089 10178 20128 56009
PABV 162256Z AUTO 30003KT 10SM CLR 17/08 A2978 RMK AO2 SLP090 T01670083
PABV 162156Z AUTO VRB04KT 10SM BKN080 16/09 A2979 RMK AO2 SLP094 T01610089
PABV 162056Z AUTO 00000KT 10SM CLR 15/08 A2981 RMK AO2 SLP099 60000 T01500078 58001
PABV 161956Z AUTO 00000KT 10SM CLR 14/07 A2981 RMK AO2 RAB1857E08 SLP098 P0000 T01440072
PABV 161856Z AUTO 00000KT 10SM OVC100 14/08 A2981 RMK AO2 SLP100 T01390078
PABV 161756Z AUTO 00000KT 10SM SCT090 13/07 A2981 RMK AO2 SLP100 T01280067 10133 20100 56002
PABV 161656Z AUTO 00000KT 10SM CLR 12/07 A2981 RMK AO2 SLP100 T01220072
PABV 161556Z AUTO 03003KT 10SM CLR 12/09 A2981 RMK AO2 SLP100 T01170094